Waterloo, Iowa
Current Conditions -  °F | °C
As of 5:06 PM on Thursday 18 Dec 2014 (Local Time) from KALO Reporting Station
Overcast Overcast  
Wind Chill: 18°   Ceiling: 1800
Heat Index: 24°   Visibility: 10mi
Dew Point: 18°   Wind: 5mph
Humidity: 77%   Direction: 330°NNW
Pressure: 30.26"   Gusts: NA
Location:  42.49°N, 92.34°W
Report Text: KALO 182306Z AUTO 33004KT 10SM BKN018 OVC075 M04/M08 A3026 RMK AO2 T10441078
Loading
Personal Weather Stations






























Interactive Weather Map New forecast layout! Learn more

10-Day Weather Forecast

Advertisements
Track Severe Weather on mobile